Time;durP1;ratioP1;P1;durP2;ratioP2;P2;SDS_P1;SDS_P2;PMS_P1;PMS_P2;Temp;Humidity;BMP_temperature;BMP_pressure;BME280_temperature;BME280_humidity;BME280_pressure;Samples;Min_cycle;Max_cycle;Signal;HPM_P1;HPM_P2
2022/11/06 00:01:44;;;;;;;7.03;5.23;;;14.10;99.90;;;;;;5008888;28;20192;-76
2022/11/06 00:04:10;;;;;;;8.07;5.53;;;14.10;99.90;;;;;;5007363;28;20736;-76
2022/11/06 00:06:49;;;;;;;8.30;5.13;;;14.10;99.90;;;;;;5008650;28;20204;-76
2022/11/06 00:09:20;;;;;;;6.30;4.97;;;14.00;99.90;;;;;;5004440;28;20185;-76
2022/11/06 00:11:49;;;;;;;6.57;4.47;;;14.00;99.90;;;;;;4992359;28;20204;-76
2022/11/06 00:14:18;;;;;;;6.80;5.03;;;14.00;99.90;;;;;;4998537;28;20584;-76
2022/11/06 00:16:46;;;;;;;6.90;5.10;;;13.90;99.90;;;;;;5017582;28;20345;-76
2022/11/06 00:19:15;;;;;;;10.20;4.10;;;14.00;99.90;;;;;;4985287;28;20266;-76
2022/11/06 00:21:43;;;;;;;8.03;4.33;;;14.00;99.90;;;;;;5011315;28;20227;-76
2022/11/06 00:24:12;;;;;;;6.90;4.17;;;13.90;99.90;;;;;;4991521;28;20960;-76
2022/11/06 00:26:39;;;;;;;7.67;4.57;;;13.90;99.90;;;;;;4985253;28;20287;-76
2022/11/06 00:29:07;;;;;;;5.73;4.40;;;13.90;99.90;;;;;;5008576;28;20196;-76
2022/11/06 00:31:36;;;;;;;8.57;4.30;;;13.80;99.90;;;;;;5008344;28;20177;-76
2022/11/06 00:34:07;;;;;;;5.97;4.03;;;13.80;99.90;;;;;;4990179;28;20192;-76
2022/11/06 00:36:35;;;;;;;10.27;4.70;;;13.70;99.90;;;;;;5008197;28;20239;-76
2022/11/06 00:39:02;;;;;;;6.93;3.80;;;13.60;99.90;;;;;;5006712;28;20189;-76
2022/11/06 00:41:29;;;;;;;8.03;4.30;;;13.60;99.90;;;;;;5004200;28;20186;-76
2022/11/06 00:43:58;;;;;;;6.67;4.20;;;13.70;99.90;;;;;;5004090;28;20243;-76
2022/11/06 00:46:26;;;;;;;6.23;4.60;;;13.70;99.90;;;;;;5023663;28;20290;-76
2022/11/06 00:48:54;;;;;;;6.97;4.20;;;13.80;99.90;;;;;;4996599;28;20193;-76
2022/11/06 00:51:28;;;;;;;7.00;4.37;;;13.90;99.90;;;;;;4970206;28;20196;-76
2022/11/06 00:54:02;;;;;;;7.27;4.30;;;13.90;99.90;;;;;;4980142;28;20203;-76
2022/11/06 00:56:30;;;;;;;7.37;4.90;;;13.90;99.90;;;;;;4985204;28;20209;-76
2022/11/06 00:59:03;;;;;;;7.07;4.47;;;13.90;99.90;;;;;;5007151;28;20262;-76
2022/11/06 01:01:33;;;;;;;10.50;4.80;;;13.90;99.90;;;;;;4991319;28;20594;-74
2022/11/06 01:04:12;;;;;;;8.53;4.40;;;13.90;99.90;;;;;;4986576;28;20221;-74
2022/11/06 01:06:43;;;;;;;6.57;4.60;;;14.00;99.90;;;;;;4973087;28;20204;-74
2022/11/06 01:09:14;;;;;;;6.77;4.87;;;14.00;99.90;;;;;;4993292;28;20251;-74
2022/11/06 01:11:48;;;;;;;6.60;4.27;;;14.00;99.90;;;;;;5007423;28;20670;-74
2022/11/06 01:14:17;;;;;;;7.37;4.70;;;14.00;99.90;;;;;;5006020;28;20676;-74
2022/11/06 01:16:45;;;;;;;7.30;4.97;;;14.10;99.90;;;;;;5002912;28;20208;-74
2022/11/06 01:19:15;;;;;;;7.10;4.93;;;14.10;99.90;;;;;;5005748;28;20196;-74
2022/11/06 01:21:45;;;;;;;6.27;4.47;;;14.10;99.90;;;;;;4999334;28;20208;-74
2022/11/06 01:24:17;;;;;;;7.67;4.87;;;14.20;99.90;;;;;;5006182;28;20236;-74
2022/11/06 01:26:44;;;;;;;7.67;4.40;;;14.20;99.90;;;;;;4973984;28;20187;-74
2022/11/06 01:29:13;;;;;;;7.13;5.03;;;14.10;99.90;;;;;;5008144;28;20268;-74
2022/11/06 01:31:41;;;;;;;7.47;5.03;;;14.10;99.90;;;;;;4989094;28;20227;-74
2022/11/06 01:34:11;;;;;;;9.23;4.53;;;14.10;99.90;;;;;;5004674;28;20197;-74
2022/11/06 01:36:38;;;;;;;9.23;5.33;;;14.10;99.90;;;;;;5000598;28;20193;-74
2022/11/06 01:39:10;;;;;;;6.20;4.30;;;14.10;99.90;;;;;;5008047;28;20283;-74
2022/11/06 01:41:44;;;;;;;7.60;4.77;;;14.10;99.90;;;;;;5006047;28;20189;-74
2022/11/06 01:44:33;;;;;;;8.30;4.40;;;14.10;99.90;;;;;;4987084;28;20263;-74
2022/11/06 01:47:02;;;;;;;8.27;4.90;;;14.10;99.90;;;;;;5007704;28;20252;-74
2022/11/06 01:49:36;;;;;;;7.60;5.13;;;14.10;99.90;;;;;;5006804;28;20295;-74
2022/11/06 01:52:11;;;;;;;7.37;4.87;;;14.10;99.90;;;;;;4996334;28;20199;-74
2022/11/06 01:54:42;;;;;;;5.87;5.23;;;14.10;99.90;;;;;;5005032;28;20553;-75
2022/11/06 01:57:10;;;;;;;10.83;5.40;;;14.10;99.90;;;;;;5007941;28;20600;-74
2022/11/06 01:59:43;;;;;;;8.37;5.40;;;14.20;99.90;;;;;;5005123;28;20220;-74
2022/11/06 02:02:12;;;;;;;8.43;5.03;;;14.30;99.90;;;;;;4998852;28;20188;-74
2022/11/06 02:04:47;;;;;;;9.70;5.87;;;14.30;99.90;;;;;;5003729;28;20248;-75
2022/11/06 02:07:15;;;;;;;6.73;5.13;;;14.30;99.90;;;;;;5014616;28;20199;-74
2022/11/06 02:09:41;;;;;;;11.90;6.53;;;14.40;99.90;;;;;;5005750;28;20514;-74
2022/11/06 02:12:43;;;;;;;8.00;5.50;;;14.40;99.90;;;;;;5007199;28;20239;-74
2022/11/06 02:15:34;;;;;;;8.33;5.17;;;14.50;99.90;;;;;;5003752;28;20181;-74
2022/11/06 02:18:17;;;;;;;8.17;5.70;;;14.50;99.90;;;;;;4987878;28;20185;-75
2022/11/06 02:21:04;;;;;;;7.20;5.57;;;14.50;99.90;;;;;;4999626;28;20905;-75
2022/11/06 02:23:56;;;;;;;6.63;5.70;;;14.50;99.90;;;;;;5007622;28;20180;-75
2022/11/06 02:26:59;;;;;;;11.47;5.60;;;14.40;99.90;;;;;;5005708;28;20189;-74
2022/11/06 02:29:43;;;;;;;8.90;5.30;;;14.40;99.90;;;;;;4961993;28;20655;-75
2022/11/06 02:32:29;;;;;;;9.77;5.53;;;14.40;99.90;;;;;;4985669;28;20196;-74
2022/11/06 02:35:02;;;;;;;8.00;5.27;;;14.40;99.90;;;;;;5006594;28;20613;-74
2022/11/06 02:37:36;;;;;;;9.40;5.10;;;14.40;99.90;;;;;;4991200;28;20184;-74
2022/11/06 02:40:07;;;;;;;9.47;5.50;;;14.40;99.90;;;;;;4989215;28;20273;-74
2022/11/06 02:42:42;;;;;;;9.33;5.50;;;14.40;99.90;;;;;;4991758;28;20193;-74
2022/11/06 02:45:16;;;;;;;9.27;5.57;;;14.40;99.90;;;;;;4989092;28;20216;-74
2022/11/06 02:47:47;;;;;;;8.27;5.20;;;14.40;99.90;;;;;;5004139;28;20208;-75
2022/11/06 02:50:47;;;;;;;10.80;5.47;;;14.40;99.90;;;;;;5006593;28;20189;-74
2022/11/06 02:53:22;;;;;;;8.30;5.20;;;14.40;99.90;;;;;;4999453;28;20212;-74
2022/11/06 02:55:54;;;;;;;5.93;4.97;;;14.40;99.90;;;;;;5008525;28;20180;-77
2022/11/06 02:58:39;;;;;;;10.57;5.30;;;14.30;99.90;;;;;;4993083;28;20181;-76
2022/11/06 03:01:20;;;;;;;11.20;5.53;;;14.40;99.90;;;;;;5007802;28;20658;-76
2022/11/06 03:03:54;;;;;;;8.40;5.20;;;14.40;99.90;;;;;;4989417;28;20199;-76
2022/11/06 03:06:52;;;;;;;8.47;5.83;;;14.40;99.90;;;;;;5010497;28;20204;-76
2022/11/06 03:09:27;;;;;;;11.00;5.50;;;14.40;99.90;;;;;;5001075;28;20296;-76
2022/11/06 03:12:11;;;;;;;6.57;5.70;;;14.40;99.90;;;;;;5009288;28;20187;-76
2022/11/06 03:15:23;;;;;;;8.37;5.10;;;14.40;99.90;;;;;;5001884;28;20694;-76
2022/11/06 03:18:24;;;;;;;7.60;5.23;;;14.30;99.90;;;;;;5010662;28;20208;-76
2022/11/06 03:21:25;;;;;;;5.60;4.87;;;14.30;99.90;;;;;;4975559;28;20201;-76
2022/11/06 03:24:14;;;;;;;7.47;5.40;;;14.30;99.90;;;;;;4981613;28;20291;-76
2022/11/06 03:26:47;;;;;;;8.83;5.37;;;14.30;99.90;;;;;;5002551;28;20181;-76
2022/11/06 03:29:45;;;;;;;9.07;5.60;;;14.30;99.90;;;;;;5007467;28;20181;-76
2022/11/06 03:32:50;;;;;;;8.43;5.87;;;14.30;99.90;;;;;;5009487;28;20211;-76
2022/11/06 03:35:33;;;;;;;10.70;5.20;;;14.30;99.90;;;;;;4991561;28;20307;-76
2022/11/06 03:38:24;;;;;;;11.43;6.10;;;14.30;99.90;;;;;;5009629;28;20187;-76
2022/11/06 03:40:59;;;;;;;10.33;6.10;;;14.20;99.90;;;;;;5008630;28;20197;-76
2022/11/06 03:43:35;;;;;;;5.80;5.00;;;14.20;99.90;;;;;;5009977;28;20246;-77
2022/11/06 03:46:12;;;;;;;7.73;5.20;;;14.30;99.90;;;;;;5014856;28;20199;-76
2022/11/06 03:48:49;;;;;;;6.93;5.20;;;14.20;99.90;;;;;;5010572;28;20719;-76
2022/11/06 03:51:38;;;;;;;10.17;5.40;;;14.30;99.90;;;;;;5006426;28;20192;-76
2022/11/06 03:54:22;;;;;;;9.57;5.53;;;14.30;99.90;;;;;;5000470;28;20735;-76
2022/11/06 03:57:32;;;;;;;7.73;5.83;;;14.30;99.90;;;;;;5015956;28;20680;-76
2022/11/06 04:00:03;;;;;;;8.30;5.67;;;14.30;99.90;;;;;;5006695;28;20238;-77
2022/11/06 04:02:35;;;;;;;13.10;5.77;;;14.30;99.90;;;;;;5006120;28;20196;-76
2022/11/06 04:05:24;;;;;;;8.03;5.50;;;14.30;99.90;;;;;;5002304;28;20629;-76
2022/11/06 04:16:19;;;;;;;15.00;6.43;;;14.30;99.90;;;;;;5009878;28;20729;-76
2022/11/06 04:18:46;;;;;;;12.47;6.20;;;14.30;99.90;;;;;;4990316;28;20223;-76
2022/11/06 04:21:33;;;;;;;14.67;5.80;;;14.30;99.90;;;;;;4989881;28;20189;-76
2022/11/06 04:27:44;;;;;;;7.23;5.13;;;14.20;99.90;;;;;;4991151;28;20193;-76
2022/11/06 04:30:18;;;;;;;10.07;5.40;;;14.20;99.90;;;;;;4990700;28;20670;-76
2022/11/06 04:33:21;;;;;;;13.53;6.07;;;14.20;99.90;;;;;;4996525;28;20194;-76
2022/11/06 04:36:17;;;;;;;13.70;5.60;;;14.20;99.90;;;;;;4989640;28;20557;-76
2022/11/06 04:39:04;;;;;;;9.73;5.83;;;14.10;99.90;;;;;;5002072;28;20200;-76
2022/11/06 04:41:34;;;;;;;9.63;5.67;;;14.10;99.90;;;;;;5008734;28;20192;-77
2022/11/06 04:44:24;;;;;;;7.47;5.50;;;14.20;99.90;;;;;;5009416;28;20200;-76
2022/11/06 04:47:03;;;;;;;7.03;5.40;;;14.20;99.90;;;;;;4990646;28;20220;-76
2022/11/06 04:49:34;;;;;;;7.80;5.57;;;14.20;99.90;;;;;;5007140;28;20731;-76
2022/11/06 04:52:08;;;;;;;8.63;5.50;;;14.20;99.90;;;;;;4989573;28;20275;-76
2022/11/06 04:54:34;;;;;;;11.17;5.70;;;14.20;99.90;;;;;;5007615;28;20298;-76
2022/11/06 04:57:03;;;;;;;7.73;5.50;;;14.30;99.90;;;;;;5007616;28;20197;-77
2022/11/06 04:59:35;;;;;;;10.40;5.20;;;14.30;99.90;;;;;;4987700;28;20204;-76
2022/11/06 05:02:06;;;;;;;10.03;5.70;;;14.40;99.90;;;;;;5008500;28;20189;-76
2022/11/06 05:04:34;;;;;;;8.90;5.70;;;14.40;99.90;;;;;;5006339;28;20221;-76
2022/11/06 05:07:02;;;;;;;10.00;6.27;;;14.50;99.90;;;;;;5008258;28;20685;-76
2022/11/06 05:09:29;;;;;;;8.43;5.50;;;14.50;99.90;;;;;;5010161;28;20180;-76
2022/11/06 05:11:56;;;;;;;11.30;5.83;;;14.50;99.90;;;;;;5007760;28;20627;-76
2022/11/06 05:14:23;;;;;;;6.70;5.63;;;14.50;99.90;;;;;;4987804;28;20224;-76
2022/11/06 05:16:49;;;;;;;9.37;5.10;;;14.40;99.90;;;;;;5006541;28;20199;-76
2022/11/06 05:19:16;;;;;;;7.80;5.20;;;14.40;99.90;;;;;;5011983;28;20193;-76
2022/11/06 05:24:46;;;;;;;7.43;5.03;;;14.40;99.90;;;;;;4962013;28;20244;-76
2022/11/06 05:27:15;;;;;;;8.27;4.67;;;14.40;99.90;;;;;;4979350;28;20211;-76
2022/11/06 05:29:41;;;;;;;7.27;5.60;;;14.50;99.90;;;;;;5003087;28;20893;-77
2022/11/06 05:32:08;;;;;;;7.70;5.20;;;14.50;99.90;;;;;;5004528;28;20212;-77
2022/11/06 05:34:34;;;;;;;9.33;5.43;;;14.50;99.90;;;;;;5014592;28;20215;-76
2022/11/06 05:37:01;;;;;;;9.03;5.03;;;14.60;99.90;;;;;;4992139;28;20215;-76
2022/11/06 05:39:27;;;;;;;11.17;5.47;;;14.60;99.90;;;;;;5006326;28;20376;-76
2022/11/06 05:41:54;;;;;;;7.23;5.63;;;14.70;99.90;;;;;;5006707;28;20816;-76
2022/11/06 05:44:20;;;;;;;7.20;5.70;;;14.70;99.90;;;;;;5001418;28;20267;-76
2022/11/06 05:46:49;;;;;;;8.13;5.17;;;14.80;99.90;;;;;;4971134;28;20189;-76
2022/11/06 05:49:17;;;;;;;8.57;5.17;;;14.80;99.90;;;;;;4993453;28;20288;-76
2022/11/06 05:51:47;;;;;;;8.93;5.30;;;14.90;99.90;;;;;;5001511;28;20185;-76
2022/11/06 05:54:15;;;;;;;10.37;5.83;;;15.00;99.90;;;;;;4990085;28;20189;-76
2022/11/06 05:56:41;;;;;;;6.97;5.17;;;15.00;99.90;;;;;;4989377;28;20267;-76
2022/11/06 05:59:08;;;;;;;8.57;6.00;;;15.00;99.90;;;;;;4999681;28;20205;-76
2022/11/06 06:01:34;;;;;;;9.93;4.97;;;15.10;99.90;;;;;;5006632;28;20276;-77
2022/11/06 06:04:02;;;;;;;9.30;5.30;;;15.20;99.90;;;;;;5007299;28;20177;-77
2022/11/06 06:06:29;;;;;;;7.60;5.43;;;15.20;99.90;;;;;;5004830;28;20220;-77
2022/11/06 06:08:56;;;;;;;10.13;5.57;;;15.30;99.90;;;;;;5005064;28;20568;-77
2022/11/06 06:11:23;;;;;;;7.87;5.73;;;15.40;99.90;;;;;;4989494;28;20185;-76
2022/11/06 06:13:49;;;;;;;7.17;5.60;;;15.40;99.90;;;;;;5007759;28;20177;-76
2022/11/06 06:16:15;;;;;;;7.17;5.03;;;15.40;99.90;;;;;;5004069;28;20196;-76
2022/11/06 06:18:42;;;;;;;8.20;5.30;;;15.50;99.90;;;;;;4988650;28;20192;-76
2022/11/06 06:21:08;;;;;;;9.93;5.27;;;15.70;99.90;;;;;;4993869;28;20202;-77
2022/11/06 06:23:35;;;;;;;9.57;4.70;;;16.00;99.90;;;;;;5011789;28;20285;-76
2022/11/06 06:26:01;;;;;;;9.57;4.43;;;16.10;99.90;;;;;;5010874;28;20274;-77
2022/11/06 06:28:27;;;;;;;10.73;4.70;;;16.10;99.90;;;;;;4988568;28;20185;-76
2022/11/06 06:30:55;;;;;;;9.13;4.40;;;16.10;99.90;;;;;;4989740;28;20214;-77
2022/11/06 06:33:21;;;;;;;6.70;4.33;;;16.40;99.90;;;;;;5014950;28;20271;-76
2022/11/06 06:35:47;;;;;;;9.57;4.70;;;16.50;99.90;;;;;;5006110;28;20192;-76
2022/11/06 06:38:14;;;;;;;9.23;4.47;;;16.50;99.90;;;;;;4995833;28;20197;-76
2022/11/06 06:40:40;;;;;;;11.17;5.00;;;16.40;99.90;;;;;;5003288;28;20192;-76
2022/11/06 06:43:07;;;;;;;8.30;4.30;;;16.40;99.90;;;;;;5008188;28;20728;-76
2022/11/06 06:45:35;;;;;;;6.70;4.70;;;16.30;99.90;;;;;;5004629;28;20562;-76
2022/11/06 06:48:03;;;;;;;7.57;4.70;;;16.40;99.90;;;;;;5008132;28;20203;-76
2022/11/06 06:50:30;;;;;;;7.77;4.40;;;16.50;99.90;;;;;;5013152;28;20188;-76
2022/11/06 06:52:58;;;;;;;10.27;4.47;;;16.50;99.90;;;;;;5007410;28;20247;-76
2022/11/06 06:55:25;;;;;;;7.03;4.27;;;16.50;99.90;;;;;;5007071;28;20193;-76
2022/11/06 06:58:00;;;;;;;7.50;4.50;;;16.60;99.90;;;;;;5004303;28;20213;-77
2022/11/06 07:00:28;;;;;;;7.87;4.43;;;16.60;99.90;;;;;;4979038;28;20215;-77
2022/11/06 07:02:54;;;;;;;8.33;4.40;;;16.60;99.90;;;;;;5008557;28;20192;-77
2022/11/06 07:05:21;;;;;;;6.43;4.50;;;16.60;99.90;;;;;;5015342;28;20240;-77
2022/11/06 07:07:47;;;;;;;7.37;4.50;;;16.60;99.90;;;;;;5009726;28;20628;-77
2022/11/06 07:10:15;;;;;;;7.03;5.23;;;16.70;99.90;;;;;;5009036;28;21775;-76
2022/11/06 07:12:41;;;;;;;12.10;4.67;;;16.70;99.90;;;;;;4986245;28;20668;-76
2022/11/06 07:15:09;;;;;;;6.90;4.97;;;16.80;99.90;;;;;;5012281;28;20196;-77
2022/11/06 07:17:35;;;;;;;9.80;4.80;;;16.80;99.90;;;;;;4989739;28;20776;-76
2022/11/06 07:20:03;;;;;;;7.23;4.33;;;16.90;99.90;;;;;;5010392;28;20581;-76
2022/11/06 07:22:31;;;;;;;8.87;4.93;;;17.00;99.90;;;;;;5004768;28;20192;-76
2022/11/06 07:25:00;;;;;;;10.10;4.57;;;17.10;99.90;;;;;;5003506;28;20290;-76
2022/11/06 07:27:28;;;;;;;12.77;4.63;;;17.20;99.90;;;;;;5008483;28;20208;-76
2022/11/06 07:29:54;;;;;;;6.63;4.57;;;17.40;99.90;;;;;;4993804;28;20181;-77
2022/11/06 07:32:21;;;;;;;7.53;4.40;;;17.60;99.90;;;;;;5012335;28;20581;-76
2022/11/06 07:34:48;;;;;;;9.67;4.33;;;17.60;99.90;;;;;;4995246;28;20696;-77
2022/11/06 07:37:14;;;;;;;8.23;4.00;;;17.50;99.90;;;;;;5022091;28;20212;-77
2022/11/06 07:39:40;;;;;;;8.57;4.10;;;17.60;99.90;;;;;;4995919;28;20243;-76
2022/11/06 07:42:07;;;;;;;8.73;4.60;;;17.60;99.90;;;;;;5009097;28;20209;-76
2022/11/06 07:44:33;;;;;;;6.27;3.93;;;17.60;99.90;;;;;;5012722;28;20204;-77
2022/11/06 07:47:01;;;;;;;8.13;4.60;;;17.60;99.90;;;;;;5010893;28;20226;-77
2022/11/06 07:49:28;;;;;;;7.53;4.00;;;17.70;99.90;;;;;;5001049;28;20185;-77
2022/11/06 07:51:55;;;;;;;8.37;4.17;;;17.70;99.90;;;;;;5029990;28;20267;-76
2022/11/06 07:54:22;;;;;;;9.33;4.10;;;17.80;99.90;;;;;;5004973;28;20246;-76
2022/11/06 07:56:48;;;;;;;6.43;3.77;;;17.80;99.90;;;;;;4994717;28;20200;-76
2022/11/06 07:59:14;;;;;;;7.80;4.13;;;17.90;99.90;;;;;;5010983;28;20675;-77
2022/11/06 08:01:41;;;;;;;9.47;4.07;;;18.00;99.90;;;;;;5008858;28;20268;-76
2022/11/06 08:04:07;;;;;;;9.23;4.23;;;18.10;99.90;;;;;;4989456;28;20674;-77
2022/11/06 08:06:33;;;;;;;7.30;3.73;;;18.10;99.90;;;;;;4998117;28;20185;-77
2022/11/06 08:09:05;;;;;;;6.53;3.70;;;18.20;99.90;;;;;;5011868;28;20212;-77
2022/11/06 08:11:31;;;;;;;7.97;3.60;;;18.30;99.90;;;;;;4985639;28;20181;-77
2022/11/06 08:14:01;;;;;;;8.83;3.90;;;18.30;99.90;;;;;;4989270;28;20203;-77
2022/11/06 08:16:27;;;;;;;5.43;3.57;;;18.30;99.90;;;;;;5010340;28;20193;-77
2022/11/06 08:18:56;;;;;;;9.27;3.83;;;18.30;99.90;;;;;;4989286;28;20187;-77
2022/11/06 08:21:22;;;;;;;7.10;2.97;;;18.30;99.90;;;;;;4998565;28;20203;-77
2022/11/06 08:23:49;;;;;;;6.93;3.60;;;18.40;99.90;;;;;;4990899;28;20283;-77
2022/11/06 08:26:16;;;;;;;4.17;3.33;;;18.40;99.90;;;;;;4996239;28;20209;-77
2022/11/06 08:28:43;;;;;;;4.10;3.27;;;18.40;99.90;;;;;;4997244;28;20285;-77
2022/11/06 08:31:10;;;;;;;8.17;3.47;;;18.40;99.90;;;;;;5000323;28;20371;-77
2022/11/06 08:33:37;;;;;;;7.87;3.60;;;18.50;99.90;;;;;;5008474;28;20191;-77
2022/11/06 08:36:06;;;;;;;4.40;3.20;;;18.60;99.90;;;;;;4987986;28;20259;-77
2022/11/06 08:38:33;;;;;;;9.00;3.60;;;18.60;99.90;;;;;;5013922;28;20193;-77
2022/11/06 08:41:05;;;;;;;8.97;3.53;;;18.80;99.90;;;;;;5006342;28;20804;-77
2022/11/06 08:43:31;;;;;;;6.07;3.27;;;18.80;99.90;;;;;;5005850;28;20303;-77
2022/11/06 08:45:59;;;;;;;7.80;3.67;;;18.80;99.90;;;;;;5010767;28;20253;-76
2022/11/06 08:48:26;;;;;;;9.83;3.70;;;18.90;99.90;;;;;;5004578;28;20188;-76
2022/11/06 08:50:54;;;;;;;6.27;3.40;;;18.90;99.90;;;;;;5005152;28;20211;-77
2022/11/06 08:53:20;;;;;;;10.43;3.23;;;19.00;99.90;;;;;;4988827;28;20232;-77
2022/11/06 08:55:48;;;;;;;8.57;3.60;;;19.00;99.90;;;;;;5008419;28;20339;-77
2022/11/06 08:58:15;;;;;;;12.40;4.00;;;19.00;99.90;;;;;;5006455;28;20202;-78
2022/11/06 09:00:42;;;;;;;6.73;3.33;;;19.00;99.90;;;;;;4999382;28;20196;-77
2022/11/06 09:03:16;;;;;;;6.00;3.67;;;19.00;99.90;;;;;;5004775;28;20207;-77
2022/11/06 09:05:43;;;;;;;7.00;3.73;;;19.10;99.90;;;;;;5005264;28;20217;-77
2022/11/06 09:08:14;;;;;;;11.43;3.70;;;19.10;99.90;;;;;;4983769;28;20200;-77
2022/11/06 09:10:42;;;;;;;9.53;4.03;;;19.20;99.90;;;;;;5005246;28;20792;-77
2022/11/06 09:13:10;;;;;;;10.43;3.93;;;19.30;99.90;;;;;;4984014;28;20189;-77
2022/11/06 09:15:38;;;;;;;6.17;4.13;;;19.40;99.90;;;;;;5003387;28;20193;-77
2022/11/06 09:18:05;;;;;;;6.77;3.93;;;19.30;99.90;;;;;;4986217;28;20189;-77
2022/11/06 09:20:32;;;;;;;5.93;3.40;;;19.50;99.90;;;;;;4986330;28;20192;-77
2022/11/06 09:23:06;;;;;;;5.07;3.30;;;19.50;99.90;;;;;;5007249;28;20227;-77
2022/11/06 09:25:33;;;;;;;10.60;3.90;;;19.50;99.90;;;;;;5013310;28;20224;-77
2022/11/06 09:28:00;;;;;;;7.53;3.80;;;19.50;99.90;;;;;;5019213;28;20189;-77
2022/11/06 09:30:30;;;;;;;10.60;4.70;;;19.60;99.90;;;;;;5004441;28;21000;-77
2022/11/06 09:33:00;;;;;;;8.57;4.93;;;19.70;99.90;;;;;;5002378;28;20334;-77
2022/11/06 09:35:31;;;;;;;8.53;4.83;;;19.70;99.90;;;;;;4995489;28;20199;-77
2022/11/06 09:38:17;;;;;;;9.03;5.00;;;19.70;99.90;;;;;;5008371;28;20224;-77
2022/11/06 09:41:00;;;;;;;8.63;5.03;;;19.70;99.90;;;;;;5001660;28;20199;-77
2022/11/06 09:43:48;;;;;;;10.00;5.30;;;19.80;99.90;;;;;;5017768;28;20238;-77
2022/11/06 09:46:22;;;;;;;8.97;4.70;;;19.90;99.90;;;;;;5006465;28;20252;-77
2022/11/06 09:49:22;;;;;;;6.93;4.33;;;20.00;99.90;;;;;;4989494;28;20188;-77
2022/11/06 09:52:21;;;;;;;10.80;4.77;;;20.00;99.90;;;;;;4983834;28;20213;-77
2022/11/06 09:55:18;;;;;;;8.53;4.80;;;19.90;99.90;;;;;;4970138;28;20185;-77
2022/11/06 09:57:55;;;;;;;11.37;4.83;;;20.10;99.90;;;;;;4982657;28;20208;-77
2022/11/06 10:00:24;;;;;;;10.37;5.27;;;20.40;99.90;;;;;;5007355;28;20224;-77
2022/11/06 10:03:29;;;;;;;12.10;5.20;;;20.60;99.90;;;;;;5006667;28;20193;-77
2022/11/06 10:05:55;;;;;;;8.10;4.50;;;20.70;99.90;;;;;;5008175;28;20207;-77
2022/11/06 10:08:29;;;;;;;7.27;4.83;;;20.70;99.90;;;;;;5007356;28;20196;-77
2022/11/06 10:11:47;;;;;;;12.90;5.53;;;20.70;99.90;;;;;;5004701;28;20188;-77
2022/11/06 10:14:41;;;;;;;14.23;4.93;;;20.80;99.90;;;;;;5000323;28;20196;-77
2022/11/06 10:17:45;;;;;;;6.97;4.80;;;20.80;99.90;;;;;;5002531;28;20208;-77
2022/11/06 10:20:22;;;;;;;9.53;4.80;;;21.00;99.90;;;;;;4978129;28;20212;-77
2022/11/06 10:23:20;;;;;;;9.27;4.80;;;21.30;99.90;;;;;;4999151;28;20275;-77
2022/11/06 10:26:06;;;;;;;10.25;5.38;;;22.10;99.90;;;;;;4993670;28;20204;-77
2022/11/06 10:29:11;;;;;;;9.25;4.90;;;22.90;99.90;;;;;;4991208;28;20191;-77
2022/11/06 10:32:11;;;;;;;7.15;4.78;;;24.40;99.90;;;;;;4998229;28;20294;-77
2022/11/06 10:35:21;;;;;;;14.27;4.50;;;25.90;99.90;;;;;;4991161;28;20185;-77
2022/11/06 10:37:53;;;;;;;7.07;4.45;;;24.50;99.90;;;;;;4991355;28;20728;-77
2022/11/06 10:40:27;;;;;;;11.18;4.68;;;23.40;99.90;;;;;;4983663;28;20165;-77
2022/11/06 10:43:49;;;;;;;8.50;4.70;;;22.70;99.90;;;;;;4991829;28;20192;-77
2022/11/06 10:47:20;;;;;;;13.57;4.85;;;22.50;99.90;;;;;;5000821;28;20224;-78
2022/11/06 10:49:57;;;;;;;9.35;4.18;;;22.40;99.90;;;;;;4965973;28;20303;-78
2022/11/06 10:53:01;;;;;;;11.30;5.13;;;22.70;99.90;;;;;;5007363;28;20299;-78
2022/11/06 10:56:15;;;;;;;8.45;4.97;;;22.70;99.90;;;;;;5004623;28;20198;-77
2022/11/06 10:58:45;;;;;;;9.90;4.63;;;22.60;99.90;;;;;;4973255;28;20726;-77
2022/11/06 11:01:14;;;;;;;11.75;4.68;;;23.40;99.90;;;;;;4977334;28;20557;-78
2022/11/06 11:03:48;;;;;;;10.85;4.68;;;23.10;99.90;;;;;;4992749;28;20326;-77
2022/11/06 11:06:15;;;;;;;10.90;4.88;;;22.40;99.90;;;;;;4999105;28;20212;-77
2022/11/06 11:08:45;;;;;;;11.98;5.13;;;22.00;99.90;;;;;;5018294;28;20661;-77
2022/11/06 11:11:14;;;;;;;12.93;4.88;;;21.90;99.90;;;;;;4974327;28;20284;-77
2022/11/06 11:13:59;;;;;;;8.57;5.13;;;21.80;99.90;;;;;;5000661;28;20192;-78
2022/11/06 11:16:36;;;;;;;12.35;5.13;;;21.70;99.90;;;;;;5000106;28;20207;-77
2022/11/06 11:19:25;;;;;;;16.00;5.60;;;21.60;99.90;;;;;;5006509;28;20196;-77
2022/11/06 11:22:04;;;;;;;13.13;5.13;;;21.70;99.90;;;;;;5001753;28;20192;-77
2022/11/06 11:24:31;;;;;;;8.55;5.00;;;21.60;99.90;;;;;;5023610;28;20204;-77
2022/11/06 11:27:06;;;;;;;6.73;4.97;;;21.60;99.90;;;;;;5010270;28;20268;-77
2022/11/06 11:29:44;;;;;;;14.20;4.82;;;21.60;99.90;;;;;;5010423;28;20211;-77
2022/11/06 11:32:17;;;;;;;14.30;5.10;;;21.70;99.90;;;;;;5008578;28;20669;-77
2022/11/06 11:34:52;;;;;;;8.83;5.63;;;21.60;99.90;;;;;;5003510;28;20199;-77
2022/11/06 11:37:34;;;;;;;12.90;4.63;;;21.60;99.90;;;;;;4991405;28;20196;-77
2022/11/06 11:40:21;;;;;;;10.17;4.80;;;21.70;99.90;;;;;;5011095;28;20191;-77
2022/11/06 11:42:48;;;;;;;6.90;4.78;;;21.60;99.90;;;;;;4985342;28;20292;-77
2022/11/06 11:45:20;;;;;;;9.67;5.10;;;21.50;99.90;;;;;;5009580;28;20205;-77
2022/11/06 11:47:50;;;;;;;12.43;5.20;;;21.60;99.90;;;;;;5001741;28;20189;-77
2022/11/06 11:50:18;;;;;;;7.50;5.10;;;21.60;99.90;;;;;;4992644;28;20199;-77
2022/11/06 11:52:51;;;;;;;6.97;4.80;;;21.50;99.90;;;;;;4999414;28;20188;-77
2022/11/06 11:55:26;;;;;;;8.10;4.82;;;21.50;99.90;;;;;;5004744;28;20209;-77
2022/11/06 11:57:59;;;;;;;9.30;5.00;;;21.50;99.90;;;;;;5002993;28;20196;-77
2022/11/06 12:00:28;;;;;;;7.67;4.83;;;21.40;99.90;;;;;;5005602;28;20196;-77
2022/11/06 12:03:14;;;;;;;9.93;4.60;;;21.40;99.90;;;;;;4991888;28;20197;-77
2022/11/06 12:05:40;;;;;;;10.30;4.87;;;21.40;99.90;;;;;;5007432;28;20220;-77
2022/11/06 12:08:20;;;;;;;12.83;4.97;;;21.30;99.90;;;;;;4993502;28;20196;-77
2022/11/06 12:10:48;;;;;;;12.15;5.40;;;21.30;99.90;;;;;;5002200;28;20956;-77
2022/11/06 12:13:24;;;;;;;10.60;5.45;;;21.30;99.90;;;;;;5006274;28;20181;-77
2022/11/06 12:16:18;;;;;;;10.20;4.95;;;21.30;99.90;;;;;;4991431;28;20195;-77
2022/11/06 12:18:55;;;;;;;11.33;5.33;;;21.30;99.90;;;;;;5000036;28;20312;-77
2022/11/06 12:21:36;;;;;;;8.80;4.90;;;21.20;99.90;;;;;;4999563;28;20212;-77
2022/11/06 12:24:14;;;;;;;7.17;4.93;;;21.20;99.90;;;;;;4990361;28;20682;-77
2022/11/06 12:26:58;;;;;;;9.40;5.00;;;21.20;99.90;;;;;;4987603;28;20661;-77
2022/11/06 12:29:49;;;;;;;8.37;5.40;;;21.20;99.90;;;;;;5003828;28;20216;-76
2022/11/06 12:32:22;;;;;;;8.83;5.20;;;21.00;99.90;;;;;;4998828;28;20193;-76
2022/11/06 12:35:25;;;;;;;12.80;5.40;;;20.90;99.90;;;;;;5008623;28;20191;-75
2022/11/06 12:38:04;;;;;;;9.63;4.80;;;20.90;99.90;;;;;;5008928;28;20295;-76
2022/11/06 12:40:38;;;;;;;9.23;5.17;;;20.80;99.90;;;;;;4987571;28;20204;-75
2022/11/06 12:43:37;;;;;;;12.33;5.33;;;20.80;99.90;;;;;;5008498;28;20187;-76
2022/11/06 12:46:48;;;;;;;11.47;5.33;;;20.70;99.90;;;;;;4994786;28;20221;-76
2022/11/06 12:49:39;;;;;;;6.70;4.70;;;20.70;99.90;;;;;;4987462;28;20211;-76
2022/11/06 12:52:46;;;;;;;10.17;5.23;;;20.70;99.90;;;;;;5008172;28;20922;-76
2022/11/06 12:55:35;;;;;;;8.67;4.80;;;20.70;99.90;;;;;;4990957;28;20523;-76
2022/11/06 12:58:27;;;;;;;12.13;4.93;;;20.60;99.90;;;;;;5008159;28;20185;-76
2022/11/06 13:01:29;;;;;;;10.33;5.00;;;20.50;99.90;;;;;;5007873;28;20189;-76
2022/11/06 13:04:32;;;;;;;7.30;5.13;;;20.50;99.90;;;;;;5013808;28;20230;-76
2022/11/06 13:07:43;;;;;;;10.83;5.07;;;20.40;99.90;;;;;;5008594;28;20303;-76
2022/11/06 13:10:36;;;;;;;8.77;5.03;;;20.30;99.90;;;;;;5017843;28;20196;-76
2022/11/06 13:13:11;;;;;;;7.00;5.13;;;20.30;99.90;;;;;;5003072;28;20225;-76
2022/11/06 13:15:50;;;;;;;17.03;5.10;;;20.30;99.90;;;;;;5008348;28;20558;-76
2022/11/06 13:18:44;;;;;;;9.33;5.20;;;20.30;99.90;;;;;;5005698;28;20227;-76
2022/11/06 13:21:37;;;;;;;7.40;5.30;;;20.20;99.90;;;;;;5006814;28;20898;-75
2022/11/06 13:24:22;;;;;;;15.70;5.70;;;20.30;99.90;;;;;;5004045;28;20278;-75
2022/11/06 13:27:36;;;;;;;6.97;5.30;;;20.20;99.90;;;;;;4990361;28;20185;-76
2022/11/06 13:30:18;;;;;;;10.13;5.53;;;20.20;99.90;;;;;;4990246;28;20185;-76
2022/11/06 13:33:36;;;;;;;7.93;4.83;;;20.20;99.90;;;;;;5005189;28;20232;-76
2022/11/06 13:36:08;;;;;;;7.80;4.97;;;20.20;99.90;;;;;;4982875;28;20205;-76
2022/11/06 13:38:53;;;;;;;11.87;5.47;;;20.10;99.90;;;;;;5008504;28;20384;-76
2022/11/06 13:41:29;;;;;;;11.97;5.50;;;20.10;99.90;;;;;;4994763;28;20189;-76
2022/11/06 13:44:15;;;;;;;8.10;5.10;;;20.10;99.90;;;;;;4988244;28;20235;-76